Time;durP1;ratioP1;P1;durP2;ratioP2;P2;SDS_P1;SDS_P2;PMS_P1;PMS_P2;Temp;Humidity;BMP_temperature;BMP_pressure;BME280_temperature;BME280_humidity;BME280_pressure;Samples;Min_cycle;Max_cycle;Signal;HPM_P1;HPM_P2
2021/08/03 00:00:51;;;;;;;7.47;4.30;;;;;;;16.16;66.59;101363.53;5041802;28;20505;-61
2021/08/03 00:03:28;;;;;;;8.70;3.92;;;;;;;16.11;66.57;101358.06;5033422;28;20088;-59
2021/08/03 00:05:56;;;;;;;7.40;3.70;;;;;;;16.05;67.03;101356.50;5031370;28;20096;-61
2021/08/03 00:08:35;;;;;;;7.95;3.72;;;;;;;16.03;67.38;101357.91;5035547;28;20048;-61
2021/08/03 00:11:04;;;;;;;9.15;4.05;;;;;;;16.00;67.58;101348.31;5031828;28;20112;-60
2021/08/03 00:13:33;;;;;;;6.35;3.70;;;;;;;15.94;67.34;101353.03;5033359;28;20030;-59
2021/08/03 00:16:03;;;;;;;9.25;3.90;;;;;;;15.84;68.07;101344.06;5035516;28;20045;-60
2021/08/03 00:18:31;;;;;;;8.38;3.42;;;;;;;15.71;68.12;101340.09;5046596;28;20637;-62
2021/08/03 00:20:59;;;;;;;9.13;3.50;;;;;;;15.62;68.46;101348.09;5035170;28;20049;-61
2021/08/03 00:23:27;;;;;;;8.00;3.80;;;;;;;15.60;68.36;101349.50;5035728;28;20215;-61
2021/08/03 00:25:56;;;;;;;7.13;3.55;;;;;;;15.62;68.64;101348.09;5034203;28;20046;-61
2021/08/03 00:28:24;;;;;;;6.82;3.70;;;;;;;15.66;68.78;101346.41;5035341;28;20546;-61
2021/08/03 00:30:52;;;;;;;6.85;4.13;;;;;;;15.73;68.49;101349.69;5034950;28;20053;-62
2021/08/03 00:33:20;;;;;;;8.35;3.63;;;;;;;15.78;68.45;101340.56;5035050;28;20041;-62
2021/08/03 00:35:49;;;;;;;5.40;3.28;;;;;;;15.80;68.36;101337.50;5048013;28;20106;-61
2021/08/03 00:38:18;;;;;;;8.15;4.05;;;;;;;15.80;68.60;101340.25;5054085;28;20095;-61
2021/08/03 00:40:55;;;;;;;6.55;3.85;;;;;;;15.77;68.53;101339.72;5041962;28;20099;-61
2021/08/03 00:43:23;;;;;;;7.15;3.70;;;;;;;15.72;68.50;101342.53;5037449;28;20508;-60
2021/08/03 00:45:52;;;;;;;7.68;3.67;;;;;;;15.71;68.54;101346.41;5034149;28;20049;-62
2021/08/03 00:48:20;;;;;;;7.72;3.72;;;;;;;15.68;68.77;101344.22;5047736;28;20103;-61
2021/08/03 00:50:48;;;;;;;8.93;3.90;;;;;;;15.69;68.63;101343.09;5034946;28;20048;-62
2021/08/03 00:53:16;;;;;;;7.78;3.88;;;;;;;15.69;69.07;101337.59;5035724;28;20033;-61
2021/08/03 00:55:45;;;;;;;7.13;4.10;;;;;;;15.70;68.82;101333.75;5044172;28;20041;-61
2021/08/03 00:58:12;;;;;;;8.73;3.92;;;;;;;15.73;68.73;101330.44;5030749;28;20061;-61
2021/08/03 01:00:41;;;;;;;6.25;3.75;;;;;;;15.76;69.06;101334.53;5044103;28;20087;-60
2021/08/03 01:03:09;;;;;;;6.93;3.50;;;;;;;15.77;69.05;101323.25;5038503;28;20099;-61
2021/08/03 01:05:47;;;;;;;6.55;3.75;;;;;;;15.76;68.60;101332.59;5034789;28;20172;-61
2021/08/03 01:08:31;;;;;;;7.03;3.53;;;;;;;15.73;68.71;101327.69;5049214;28;20045;-61
2021/08/03 01:11:06;;;;;;;7.85;3.70;;;;;;;15.75;68.94;101324.66;5030936;28;20030;-61
2021/08/03 01:13:57;;;;;;;7.70;4.15;;;;;;;15.78;68.84;101321.34;5034433;28;20072;-61
2021/08/03 01:16:43;;;;;;;8.93;4.32;;;;;;;15.80;68.73;101321.03;5022688;28;20049;-59
2021/08/03 01:19:15;;;;;;;7.72;3.97;;;;;;;15.80;68.58;101318.28;5050835;28;20107;-64
2021/08/03 01:21:51;;;;;;;6.90;3.80;;;;;;;15.74;68.92;101323.03;5035445;28;20128;-61
2021/08/03 01:24:36;;;;;;;8.68;4.03;;;;;;;15.68;69.01;101318.63;5032596;28;20496;-60
2021/08/03 01:27:27;;;;;;;8.63;4.25;;;;;;;15.60;69.48;101319.28;5030038;28;20488;-62
2021/08/03 01:29:57;;;;;;;7.22;4.00;;;;;;;15.58;69.83;101319.56;5052875;28;20041;-60
2021/08/03 01:32:28;;;;;;;10.90;4.35;;;;;;;15.53;70.45;101320.44;5042078;28;20042;-61
2021/08/03 01:34:59;;;;;;;10.70;4.20;;;;;;;15.46;70.79;101321.88;5037355;28;20056;-61
2021/08/03 01:37:30;;;;;;;8.98;4.25;;;;;;;15.39;71.21;101307.66;5043326;28;20115;-62
2021/08/03 01:40:03;;;;;;;7.80;4.03;;;;;;;15.32;71.56;101317.06;5029472;28;20047;-61
2021/08/03 01:42:31;;;;;;;8.10;3.83;;;;;;;15.27;71.71;101314.38;5033931;28;20487;-63
2021/08/03 01:45:00;;;;;;;10.85;3.95;;;;;;;15.25;71.94;101313.84;5032580;28;20084;-62
2021/08/03 01:47:30;;;;;;;6.68;3.55;;;;;;;15.30;72.09;101319.28;5032688;28;20049;-62
2021/08/03 01:49:59;;;;;;;7.70;3.35;;;;;;;15.30;71.66;101311.03;5032759;28;20053;-60
2021/08/03 01:52:28;;;;;;;9.73;4.13;;;;;;;15.29;71.78;101314.88;5032721;28;20045;-62
2021/08/03 01:55:00;;;;;;;7.50;3.75;;;;;;;15.28;71.87;101313.25;5026540;28;20088;-61
2021/08/03 01:57:36;;;;;;;6.88;3.55;;;;;;;15.25;72.32;101311.09;5032852;28;20048;-61
2021/08/03 02:00:09;;;;;;;6.90;3.80;;;;;;;15.27;72.56;101313.53;5026967;28;20049;-61
2021/08/03 02:02:43;;;;;;;8.60;4.00;;;;;;;15.29;72.25;101317.63;5039091;28;20128;-61
2021/08/03 02:05:15;;;;;;;7.40;4.22;;;;;;;15.29;72.29;101316.81;5039135;28;20065;-61
2021/08/03 02:07:55;;;;;;;10.32;4.05;;;;;;;15.32;72.15;101319.81;5034298;28;20121;-63
2021/08/03 02:10:26;;;;;;;9.63;4.00;;;;;;;15.30;72.34;101319.28;5027508;28;20052;-61
2021/08/03 02:12:55;;;;;;;8.55;4.70;;;;;;;15.28;72.73;101315.19;5033651;28;20044;-61
2021/08/03 02:15:24;;;;;;;9.57;4.55;;;;;;;15.21;72.85;101310.03;5032221;28;20038;-62
2021/08/03 02:17:52;;;;;;;7.28;3.95;;;;;;;15.15;73.19;101313.09;5033183;28;20065;-62
2021/08/03 02:20:29;;;;;;;9.45;4.82;;;;;;;15.11;73.47;101315.59;5032142;28;20049;-60
2021/08/03 02:23:00;;;;;;;10.50;4.80;;;;;;;15.09;73.71;101312.31;5046059;28;20124;-62
2021/08/03 02:25:31;;;;;;;9.68;5.32;;;;;;;15.11;73.64;101312.84;5044440;28;20400;-62
2021/08/03 02:27:59;;;;;;;10.32;4.95;;;;;;;15.09;73.74;101307.63;5036728;28;20048;-62
2021/08/03 02:30:29;;;;;;;8.85;4.72;;;;;;;15.10;73.80;101302.97;5040941;28;20073;-61
2021/08/03 02:33:08;;;;;;;10.90;4.72;;;;;;;15.17;73.80;101308.94;5034759;28;20053;-60
2021/08/03 02:36:00;;;;;;;9.73;5.10;;;;;;;15.24;73.49;101312.19;5050828;28;20076;-62
2021/08/03 02:38:29;;;;;;;9.27;4.82;;;;;;;15.26;73.37;101309.97;5015677;28;20052;-62
2021/08/03 02:40:57;;;;;;;9.45;4.60;;;;;;;15.30;73.36;101310.22;5031846;28;20038;-61
2021/08/03 02:43:32;;;;;;;13.18;5.38;;;;;;;15.33;73.16;101301.41;5032136;28;20052;-60
2021/08/03 02:46:04;;;;;;;7.78;4.88;;;;;;;15.32;73.17;101295.09;5043594;28;20068;-61
2021/08/03 02:48:33;;;;;;;10.07;5.30;;;;;;;15.28;73.32;101305.00;5032725;28;20125;-60
2021/08/03 02:51:03;;;;;;;15.73;6.03;;;;;;;15.26;73.63;101311.91;5032899;28;20053;-61
2021/08/03 02:54:02;;;;;;;11.10;5.32;;;;;;;15.17;73.63;101303.44;5031613;28;20038;-60
2021/08/03 02:56:31;;;;;;;9.15;5.30;;;;;;;15.14;74.26;101304.03;5019481;28;20037;-62
2021/08/03 02:59:07;;;;;;;10.55;5.30;;;;;;;15.11;74.60;101304.63;5030026;28;20137;-61
2021/08/03 03:01:38;;;;;;;8.45;5.63;;;;;;;15.10;74.23;101302.97;4994046;28;20198;-61
2021/08/03 03:04:17;;;;;;;10.07;5.40;;;;;;;15.05;74.95;101294.78;5002224;28;20045;-58
2021/08/03 03:06:49;;;;;;;11.52;5.65;;;;;;;14.96;75.09;101296.47;4999393;28;20060;-60
2021/08/03 03:09:22;;;;;;;8.63;5.38;;;;;;;14.83;75.36;101292.47;4994145;28;20046;-62
2021/08/03 03:11:52;;;;;;;10.27;5.72;;;;;;;14.84;76.00;101297.69;4994813;28;20050;-62
2021/08/03 03:14:22;;;;;;;9.40;5.75;;;;;;;14.88;75.64;101295.97;5022573;28;20045;-61
2021/08/03 03:16:50;;;;;;;11.90;6.43;;;;;;;14.87;75.36;101293.53;5007721;28;20103;-61
2021/08/03 03:19:19;;;;;;;12.40;6.30;;;;;;;14.89;75.58;101292.16;4994080;28;20046;-61
2021/08/03 03:21:48;;;;;;;9.52;5.70;;;;;;;14.93;75.85;101288.84;4990463;28;20053;-61
2021/08/03 03:24:16;;;;;;;10.98;5.88;;;;;;;14.96;75.61;101291.00;5013525;28;20127;-63
2021/08/03 03:26:45;;;;;;;9.27;5.85;;;;;;;14.91;75.38;101289.09;5002064;28;20563;-61
2021/08/03 03:29:16;;;;;;;9.77;5.97;;;;;;;14.87;75.89;101288.06;4993526;28;20057;-62
2021/08/03 03:31:45;;;;;;;13.25;6.03;;;;;;;14.86;76.07;101292.72;4984053;28;20071;-62
2021/08/03 03:34:13;;;;;;;10.90;6.82;;;;;;;14.88;76.07;101289.69;5044000;28;20060;-61
2021/08/03 03:36:43;;;;;;;9.70;6.15;;;;;;;14.90;75.92;101284.72;5046647;28;20053;-61
2021/08/03 03:39:12;;;;;;;10.00;6.38;;;;;;;14.85;75.96;101276.53;5031156;28;20491;-62
2021/08/03 03:41:52;;;;;;;12.02;6.32;;;;;;;14.75;76.33;101280.19;5031383;28;20034;-62
2021/08/03 03:44:20;;;;;;;17.33;6.78;;;;;;;14.76;76.35;101281.81;5043114;28;20041;-60
2021/08/03 03:46:57;;;;;;;9.40;5.78;;;;;;;14.79;76.53;101280.41;5036694;28;20041;-60
2021/08/03 03:49:36;;;;;;;11.02;6.18;;;;;;;14.79;76.33;101280.41;5042775;28;20069;-60
2021/08/03 03:52:05;;;;;;;11.65;5.90;;;;;;;14.74;76.78;101273.03;5021664;28;20064;-62
2021/08/03 03:54:38;;;;;;;10.27;5.97;;;;;;;14.75;76.84;101287.59;5047556;28;20044;-61
2021/08/03 03:57:09;;;;;;;9.95;6.85;;;;;;;14.79;76.57;101288.66;5040361;28;20045;-64
2021/08/03 03:59:43;;;;;;;11.80;6.68;;;;;;;14.80;76.59;101282.06;5035664;28;20451;-61
2021/08/03 04:02:12;;;;;;;10.13;6.30;;;;;;;14.79;76.66;101281.25;5037693;28;20045;-61
2021/08/03 04:04:40;;;;;;;8.65;5.93;;;;;;;14.80;77.00;101288.38;5044157;28;20045;-61
2021/08/03 04:07:08;;;;;;;13.70;6.97;;;;;;;14.81;76.51;101287.25;5034521;28;20045;-62
2021/08/03 04:09:38;;;;;;;11.90;7.72;;;;;;;14.76;76.89;101276.31;5034545;28;20076;-62
2021/08/03 04:12:12;;;;;;;10.63;6.82;;;;;;;14.68;77.13;101279.69;5035073;28;20512;-61
2021/08/03 04:14:42;;;;;;;12.85;7.25;;;;;;;14.63;77.32;101282.47;5034614;28;20606;-61
2021/08/03 04:17:12;;;;;;;11.80;8.07;;;;;;;14.60;77.61;101283.00;5034370;28;20045;-61
2021/08/03 04:19:43;;;;;;;12.80;7.40;;;;;;;14.64;77.80;101286.81;5045216;28;20399;-61
2021/08/03 04:22:10;;;;;;;12.70;7.72;;;;;;;14.73;77.32;101281.56;5055409;28;20049;-62
2021/08/03 04:24:38;;;;;;;17.63;8.30;;;;;;;14.77;77.09;101286.22;5047345;28;20056;-61
2021/08/03 04:27:06;;;;;;;14.13;8.57;;;;;;;14.74;77.19;101284.00;5035299;28;20053;-54
2021/08/03 04:29:33;;;;;;;9.13;5.97;;;;;;;14.75;77.42;101298.56;5035313;28;20041;-58
2021/08/03 04:32:01;;;;;;;14.98;8.18;;;;;;;14.79;77.17;101294.97;5050784;28;20083;-55
2021/08/03 04:34:31;;;;;;;11.48;8.20;;;;;;;14.83;77.08;101290.53;5050306;28;20047;-56
2021/08/03 04:37:00;;;;;;;16.67;8.65;;;;;;;14.88;76.75;101295.16;5049960;28;20069;-59
2021/08/03 04:39:29;;;;;;;12.50;8.57;;;;;;;14.91;77.09;101289.94;5050534;28;20503;-59
2021/08/03 04:41:57;;;;;;;10.98;8.70;;;;;;;14.94;76.85;101287.75;5048687;28;20052;-59
2021/08/03 04:44:24;;;;;;;14.10;9.27;;;;;;;14.88;76.83;101282.25;5051681;28;20128;-58
2021/08/03 04:46:52;;;;;;;15.65;9.85;;;;;;;14.76;77.24;101279.06;5047825;28;20521;-59
2021/08/03 04:49:20;;;;;;;10.70;6.35;;;;;;;14.72;77.88;101280.75;5053003;28;20045;-59
2021/08/03 04:51:47;;;;;;;14.52;10.07;;;;;;;14.78;77.95;101274.13;5047609;28;20046;-59
2021/08/03 04:54:15;;;;;;;14.30;9.73;;;;;;;14.84;77.27;101277.63;5051287;28;20045;-59
2021/08/03 04:56:43;;;;;;;14.30;9.38;;;;;;;14.87;77.21;101282.56;5048793;28;20045;-58
2021/08/03 04:59:10;;;;;;;13.38;10.77;;;;;;;14.86;77.13;101280.91;5049929;28;20041;-58
2021/08/03 05:01:38;;;;;;;17.83;11.23;;;;;;;14.78;77.55;101276.88;5050127;28;20517;-58
2021/08/03 05:04:05;;;;;;;16.50;11.13;;;;;;;14.75;77.65;101279.38;5049352;28;20048;-58
2021/08/03 05:06:33;;;;;;;20.23;12.00;;;;;;;14.74;77.72;101277.72;5051267;28;20049;-59
2021/08/03 05:09:01;;;;;;;16.92;11.68;;;;;;;14.68;77.91;101280.50;5047091;28;20416;-58
2021/08/03 05:11:28;;;;;;;20.50;12.68;;;;;;;14.68;78.09;101274.19;5051048;28;20037;-58
2021/08/03 05:13:56;;;;;;;18.60;12.48;;;;;;;14.67;78.03;101276.13;5047422;28;20041;-58
2021/08/03 05:16:25;;;;;;;17.40;12.02;;;;;;;14.68;78.26;101280.50;5050864;28;20053;-59
2021/08/03 05:18:52;;;;;;;31.23;14.27;;;;;;;14.62;78.20;101275.31;5048038;28;20577;-57
2021/08/03 05:21:20;;;;;;;31.67;13.25;;;;;;;14.55;78.60;101269.34;5050145;28;20041;-60
2021/08/03 05:23:47;;;;;;;21.58;12.88;;;;;;;14.56;78.31;101271.81;4350964;28;10000172;-56
2021/08/03 05:26:16;;;;;;;24.52;13.95;;;;;;;14.58;78.67;101268.78;5046723;28;20041;-57
2021/08/03 05:28:43;;;;;;;28.05;14.52;;;;;;;14.54;78.80;101267.69;5038641;28;20124;-56
2021/08/03 05:31:13;;;;;;;67.63;18.42;;;;;;;14.49;79.17;101266.59;5031522;28;20052;-56
2021/08/03 05:33:41;;;;;;;101.18;22.20;;;;;;;14.48;79.03;101259.47;5031872;28;20068;-57
2021/08/03 05:36:08;;;;;;;58.90;16.65;;;;;;;14.51;79.15;101265.50;5031174;28;20124;-58
2021/08/03 05:38:36;;;;;;;31.80;14.63;;;;;;;14.59;79.27;101268.47;5031577;28;20408;-58
2021/08/03 05:41:03;;;;;;;20.83;12.75;;;;;;;14.65;78.68;101272.03;5032025;28;20037;-58
2021/08/03 05:43:31;;;;;;;23.75;14.20;;;;;;;14.67;78.64;101267.06;5031829;28;20041;-58
2021/08/03 05:45:59;;;;;;;23.67;14.55;;;;;;;14.68;78.87;101268.72;5031286;28;20393;-57
2021/08/03 05:48:26;;;;;;;22.38;13.75;;;;;;;14.67;78.95;101265.16;5030163;28;20042;-58
2021/08/03 05:50:54;;;;;;;17.33;11.93;;;;;;;14.68;78.93;101265.97;5031582;28;20061;-59
2021/08/03 05:53:22;;;;;;;19.35;11.98;;;;;;;14.73;78.73;101265.13;5030861;28;20140;-57
2021/08/03 05:55:50;;;;;;;18.40;11.73;;;;;;;14.80;78.57;101266.44;5033547;28;20056;-55
2021/08/03 05:58:17;;;;;;;15.05;11.18;;;;;;;14.88;78.06;101260.31;5033412;28;20511;-59
2021/08/03 06:00:45;;;;;;;13.50;10.30;;;;;;;14.94;78.23;101260.31;5033485;28;20043;-57
2021/08/03 06:03:13;;;;;;;16.08;10.55;;;;;;;14.98;77.81;101255.84;5032154;28;20103;-58
2021/08/03 06:05:41;;;;;;;25.95;19.70;;;;;;;15.06;77.15;101258.00;5039536;28;20037;-58
2021/08/03 06:08:11;;;;;;;22.45;15.75;;;;;;;15.12;77.38;101256.84;5035366;28;20041;-59
2021/08/03 06:10:39;;;;;;;16.67;11.48;;;;;;;15.13;77.23;101259.31;5042670;28;20041;-61
2021/08/03 06:13:07;;;;;;;19.73;12.07;;;;;;;15.17;77.17;101265.03;5047431;28;20045;-58
2021/08/03 06:15:39;;;;;;;18.83;12.60;;;;;;;15.21;77.17;101270.78;5044069;28;20041;-59
2021/08/03 06:18:36;;;;;;;15.25;10.60;;;;;;;15.21;76.81;101263.34;5039802;28;20045;-55
2021/08/03 06:21:04;;;;;;;15.00;9.80;;;;;;;15.23;76.85;101258.41;5047574;28;20045;-56
2021/08/03 06:23:31;;;;;;;16.42;11.13;;;;;;;15.26;77.08;101257.00;5048571;28;20041;-56
2021/08/03 06:26:00;;;;;;;44.33;32.00;;;;;;;15.24;76.55;101256.47;5047037;28;20500;-57
2021/08/03 06:28:28;;;;;;;18.98;12.48;;;;;;;15.24;77.10;101257.28;5042961;28;20061;-58
2021/08/03 06:30:55;;;;;;;16.45;11.82;;;;;;;15.29;76.65;101257.22;5041987;28;20104;-56
2021/08/03 06:33:23;;;;;;;15.98;9.95;;;;;;;15.32;77.02;101262.16;5050060;28;20058;-57
2021/08/03 06:35:52;;;;;;;17.45;11.95;;;;;;;15.40;76.64;101257.16;5034744;28;20053;-63
2021/08/03 06:38:21;;;;;;;17.60;11.70;;;;;;;15.39;76.84;101259.03;5031696;28;20511;-58
2021/08/03 06:41:01;;;;;;;14.30;11.63;;;;;;;15.42;76.70;101260.44;5030947;28;20041;-57
2021/08/03 06:43:32;;;;;;;12.82;8.55;;;;;;;15.45;76.54;101260.66;5031304;28;20508;-59
2021/08/03 06:46:09;;;;;;;16.20;8.98;;;;;;;15.51;75.90;101259.50;5032684;28;20042;-58
2021/08/03 06:48:49;;;;;;;17.42;9.52;;;;;;;15.58;75.67;101258.31;5030999;28;20034;-57
2021/08/03 06:51:17;;;;;;;14.27;10.25;;;;;;;15.60;75.87;101261.59;5030847;28;20052;-56
2021/08/03 06:53:46;;;;;;;15.13;11.73;;;;;;;15.57;75.63;101257.50;5036648;28;20084;-56
2021/08/03 06:56:21;;;;;;;14.40;9.73;;;;;;;15.57;75.35;101260.25;5040138;28;20377;-57
2021/08/03 06:58:58;;;;;;;14.65;10.32;;;;;;;15.58;75.58;101259.13;5046149;28;20112;-57
2021/08/03 07:01:40;;;;;;;16.08;10.18;;;;;;;15.61;75.87;101257.72;5045169;28;20048;-58
2021/08/03 07:04:12;;;;;;;12.90;7.57;;;;;;;15.64;75.68;101255.25;5032349;28;20385;-57
2021/08/03 07:06:45;;;;;;;11.55;7.05;;;;;;;15.70;75.23;101254.09;5031499;28;20232;-59
2021/08/03 07:09:15;;;;;;;20.15;12.65;;;;;;;15.75;75.46;101253.22;5030660;28;20057;-58
2021/08/03 07:11:43;;;;;;;11.93;9.25;;;;;;;15.81;75.31;101251.25;5032295;28;20049;-59
2021/08/03 07:14:11;;;;;;;12.93;8.88;;;;;;;15.82;74.86;101247.38;5032346;28;20049;-56
2021/08/03 07:16:39;;;;;;;15.93;10.52;;;;;;;15.84;75.04;101250.66;5031036;28;20813;-56
2021/08/03 07:19:08;;;;;;;13.82;9.07;;;;;;;15.85;75.19;101244.03;5030399;28;20084;-57
2021/08/03 07:21:38;;;;;;;12.15;8.88;;;;;;;15.90;74.81;101244.00;5031984;28;20396;-55
2021/08/03 07:24:10;;;;;;;12.50;9.82;;;;;;;15.96;74.92;101245.56;5030798;28;20037;-57
2021/08/03 07:26:38;;;;;;;15.68;11.25;;;;;;;15.99;74.29;101244.94;5032074;28;20056;-59
2021/08/03 07:29:06;;;;;;;13.85;9.88;;;;;;;16.04;73.33;101244.88;5031868;28;20041;-53
2021/08/03 07:31:34;;;;;;;14.00;8.27;;;;;;;16.05;73.09;101245.72;5031153;28;20037;-51
2021/08/03 07:34:06;;;;;;;12.25;7.68;;;;;;;16.09;73.09;101246.75;5030638;28;20073;-56
2021/08/03 07:36:34;;;;;;;13.15;8.68;;;;;;;16.13;72.24;101243.13;5031176;28;20037;-57
2021/08/03 07:39:04;;;;;;;10.20;7.38;;;;;;;16.16;71.84;101247.22;5031218;28;20053;-59
2021/08/03 07:41:33;;;;;;;13.35;7.05;;;;;;;16.18;71.24;101247.75;5034756;28;20038;-57
2021/08/03 07:44:01;;;;;;;11.80;5.90;;;;;;;16.21;71.83;101246.31;5034589;28;20608;-58
2021/08/03 07:46:29;;;;;;;19.63;9.35;;;;;;;16.23;71.04;101244.09;5037787;28;20049;-57
2021/08/03 07:48:57;;;;;;;12.25;7.95;;;;;;;16.26;71.17;101244.34;5034745;28;20038;-56
2021/08/03 07:51:26;;;;;;;16.73;7.35;;;;;;;16.28;71.18;101255.84;5037521;28;20419;-58
2021/08/03 07:53:53;;;;;;;14.10;8.75;;;;;;;16.30;70.48;101247.31;5034982;28;20041;-58
2021/08/03 07:56:21;;;;;;;13.05;7.55;;;;;;;16.33;70.27;101258.53;5033127;28;20049;-59
2021/08/03 07:58:49;;;;;;;12.75;7.78;;;;;;;16.35;69.54;101256.28;5033094;28;20045;-60
2021/08/03 08:01:20;;;;;;;16.85;8.05;;;;;;;16.35;69.31;101249.97;5035392;28;20046;-61
2021/08/03 08:03:47;;;;;;;16.42;6.50;;;;;;;16.36;69.93;101246.94;5034258;28;20100;-58
2021/08/03 08:06:15;;;;;;;17.42;8.00;;;;;;;16.37;69.58;101250.50;5034394;28;20045;-60
2021/08/03 08:08:43;;;;;;;13.85;7.82;;;;;;;16.38;69.12;101252.16;5034444;28;20036;-60
2021/08/03 08:11:11;;;;;;;13.35;6.40;;;;;;;16.39;68.94;101253.78;5033113;28;20091;-56
2021/08/03 08:13:39;;;;;;;13.85;6.68;;;;;;;16.43;69.68;101254.00;5044352;28;20049;-54
2021/08/03 08:16:07;;;;;;;10.05;5.85;;;;;;;16.48;68.92;101249.25;5042620;28;20098;-56
2021/08/03 08:18:34;;;;;;;12.43;6.38;;;;;;;16.49;68.85;101245.38;5038876;28;20111;-58
2021/08/03 08:21:02;;;;;;;12.90;6.20;;;;;;;16.50;68.95;101249.78;5034225;28;20216;-54
2021/08/03 08:23:31;;;;;;;10.15;6.65;;;;;;;16.53;68.56;101246.44;5035923;28;20052;-55
2021/08/03 08:25:58;;;;;;;9.73;6.10;;;;;;;16.50;67.56;101247.03;5034708;28;20504;-54
2021/08/03 08:28:26;;;;;;;9.77;5.43;;;;;;;16.49;67.46;101253.63;5033871;28;20556;-58
2021/08/03 08:30:53;;;;;;;9.43;4.40;;;;;;;16.53;67.81;101253.88;5031128;28;20041;-57
2021/08/03 08:33:21;;;;;;;8.45;4.63;;;;;;;16.55;67.06;101251.66;5030945;28;20077;-58
2021/08/03 08:35:49;;;;;;;8.25;5.18;;;;;;;16.57;66.68;101252.97;5034405;28;20496;-60
2021/08/03 08:38:17;;;;;;;8.02;5.22;;;;;;;16.60;66.91;101249.63;5040976;28;20045;-59
2021/08/03 08:40:44;;;;;;;11.65;6.57;;;;;;;16.65;67.27;101253.41;5054036;28;20061;-53
2021/08/03 08:43:14;;;;;;;13.43;8.80;;;;;;;16.68;67.25;101256.38;5053451;28;20037;-59
2021/08/03 08:45:44;;;;;;;18.30;10.57;;;;;;;16.69;67.63;101255.28;5054107;28;20138;-56
2021/08/03 08:48:13;;;;;;;15.60;8.68;;;;;;;16.71;66.92;101254.97;5052776;28;20052;-57
2021/08/03 08:50:41;;;;;;;11.25;7.32;;;;;;;16.70;66.68;101254.16;5045151;28;20041;-57
2021/08/03 08:53:09;;;;;;;13.10;7.55;;;;;;;16.70;66.74;101256.09;5044063;28;20063;-58
2021/08/03 08:55:37;;;;;;;10.95;7.55;;;;;;;16.70;66.79;101254.16;5040354;28;20509;-57
2021/08/03 08:58:04;;;;;;;13.70;8.32;;;;;;;16.72;67.31;101254.69;5043759;28;20041;-55
2021/08/03 09:00:32;;;;;;;15.18;8.65;;;;;;;16.73;67.33;101250.78;5040203;28;20289;-54
2021/08/03 09:03:00;;;;;;;18.92;11.85;;;;;;;16.76;67.62;101258.47;5043357;28;20068;-57
2021/08/03 09:05:42;;;;;;;16.67;11.95;;;;;;;16.78;68.16;101249.91;5041736;28;20042;-59
2021/08/03 09:08:11;;;;;;;15.80;9.20;;;;;;;16.80;68.29;101261.47;5043277;28;20055;-57
2021/08/03 09:10:49;;;;;;;11.60;7.78;;;;;;;16.86;68.80;101263.03;5041144;28;20033;-52
2021/08/03 09:13:18;;;;;;;9.57;5.03;;;;;;;16.93;69.15;101266.22;5044421;28;20079;-55
2021/08/03 09:16:00;;;;;;;16.15;10.90;;;;;;;16.94;68.28;101267.03;5040507;28;20051;-57
2021/08/03 09:18:34;;;;;;;17.30;9.90;;;;;;;16.94;68.12;101264.28;5044461;28;20047;-57
2021/08/03 09:21:02;;;;;;;15.43;10.10;;;;;;;16.90;68.08;101264.03;5038775;28;20563;-57
2021/08/03 09:23:46;;;;;;;12.50;5.85;;;;;;;16.99;68.72;101265.00;5042996;28;20068;-56
2021/08/03 09:26:14;;;;;;;18.35;13.35;;;;;;;16.96;68.07;101265.59;5039986;28;20124;-58
2021/08/03 09:29:06;;;;;;;12.38;8.70;;;;;;;16.93;68.48;101271.72;5039484;28;20041;-54
2021/08/03 09:31:36;;;;;;;19.48;14.63;;;;;;;16.92;68.60;101270.06;5031968;28;20099;-57
2021/08/03 09:34:15;;;;;;;16.05;12.02;;;;;;;16.89;68.63;101270.69;5034161;28;20046;-56
2021/08/03 09:36:56;;;;;;;23.08;14.48;;;;;;;16.88;68.75;101271.78;5033462;28;20121;-57
2021/08/03 09:39:36;;;;;;;25.50;12.77;;;;;;;16.87;69.13;101267.41;5034002;28;20469;-57
2021/08/03 09:42:16;;;;;;;22.67;14.35;;;;;;;16.87;69.43;101272.91;5037230;28;20049;-56
2021/08/03 09:45:01;;;;;;;14.10;9.48;;;;;;;16.91;69.40;101276.72;5033383;28;20530;-57
2021/08/03 09:47:34;;;;;;;22.50;15.48;;;;;;;16.91;69.25;101273.13;5033614;28;20461;-57
2021/08/03 09:50:12;;;;;;;23.30;16.70;;;;;;;16.89;69.04;101273.44;5033492;28;20055;-58
2021/08/03 09:52:42;;;;;;;20.40;15.85;;;;;;;16.89;69.35;101275.38;5033646;28;20041;-54
2021/08/03 09:55:14;;;;;;;22.65;16.08;;;;;;;16.88;68.85;101274.53;5051048;28;20124;-54
2021/08/03 09:57:44;;;;;;;18.85;14.32;;;;;;;16.89;69.11;101276.19;5043058;28;20046;-53
2021/08/03 10:00:35;;;;;;;20.50;16.02;;;;;;;16.88;68.98;101274.53;5031868;28;20037;-60
2021/08/03 10:03:06;;;;;;;15.90;11.48;;;;;;;16.91;68.91;101276.72;5033623;28;20061;-58
2021/08/03 10:05:35;;;;;;;18.20;13.90;;;;;;;16.92;68.79;101278.31;5033513;28;20045;-60
2021/08/03 10:08:03;;;;;;;22.35;14.65;;;;;;;16.95;68.76;101266.72;5031765;28;20064;-59
2021/08/03 10:10:33;;;;;;;26.30;17.73;;;;;;;16.97;68.52;101269.97;5031860;28;20488;-59
2021/08/03 10:13:01;;;;;;;32.20;21.67;;;;;;;17.01;68.38;101267.47;5033252;28;20128;-60
2021/08/03 10:15:28;;;;;;;23.48;17.38;;;;;;;17.01;68.61;101268.28;5031687;28;20060;-60
2021/08/03 10:17:56;;;;;;;29.15;21.35;;;;;;;17.06;68.42;101263.81;5033153;28;20478;-58
2021/08/03 10:20:24;;;;;;;36.85;26.23;;;;;;;17.07;68.99;101260.75;5033123;28;20037;-60
2021/08/03 10:23:05;;;;;;;45.20;29.10;;;;;;;17.12;69.64;101257.09;5032140;28;20044;-59
2021/08/03 10:25:38;;;;;;;26.98;20.30;;;;;;;17.11;69.05;101261.78;5031722;28;20037;-58
2021/08/03 10:28:22;;;;;;;41.67;17.25;;;;;;;17.10;68.84;101257.41;5037083;28;20048;-58
2021/08/03 10:30:50;;;;;;;24.45;16.48;;;;;;;17.10;68.83;101254.66;5039459;28;20496;-58
2021/08/03 10:33:48;;;;;;;21.90;15.65;;;;;;;17.13;68.61;101259.53;5039968;28;20110;-57
2021/08/03 10:36:49;;;;;;;19.73;17.23;;;;;;;17.12;68.09;101255.13;5032467;28;20049;-62
2021/08/03 10:39:18;;;;;;;19.13;15.73;;;;;;;17.13;68.08;101254.03;5042874;28;20053;-62
2021/08/03 10:41:57;;;;;;;22.75;16.55;;;;;;;17.17;68.37;101257.00;5028567;28;20047;-61
2021/08/03 10:44:43;;;;;;;21.23;15.35;;;;;;;17.21;68.54;101249.78;5030467;28;20069;-62
2021/08/03 10:47:43;;;;;;;18.80;13.73;;;;;;;17.23;67.71;101255.78;5040576;28;20046;-62
2021/08/03 10:50:28;;;;;;;27.20;16.52;;;;;;;17.27;67.73;101258.75;4936561;29;20462;-62
2021/08/03 10:52:58;;;;;;;27.05;18.75;;;;;;;17.31;68.43;101260.59;4952499;29;20077;-62
2021/08/03 10:55:34;;;;;;;22.75;17.20;;;;;;;17.32;67.97;101256.75;4952055;29;20655;-61
2021/08/03 10:58:16;;;;;;;21.65;16.38;;;;;;;17.35;68.22;101258.06;4939093;29;20075;-63
2021/08/03 11:00:52;;;;;;;25.67;18.05;;;;;;;17.37;68.19;101253.88;4947788;29;20052;-62
2021/08/03 11:03:35;;;;;;;23.35;18.95;;;;;;;17.38;67.99;101255.50;4946536;29;20129;-61
2021/08/03 11:06:09;;;;;;;22.70;17.80;;;;;;;17.40;67.89;101253.28;4952211;29;20142;-63
2021/08/03 11:08:37;;;;;;;23.35;17.27;;;;;;;17.40;67.64;101244.19;4952105;29;20059;-59
2021/08/03 11:11:12;;;;;;;21.45;14.75;;;;;;;17.42;67.55;101245.53;4951938;29;20134;-62
2021/08/03 11:13:58;;;;;;;20.77;16.05;;;;;;;17.44;67.43;101243.28;4951767;29;20158;-62
2021/08/03 11:16:26;;;;;;;21.67;17.63;;;;;;;17.55;67.67;101243.09;4932947;29;20434;-62
2021/08/03 11:18:55;;;;;;;29.80;19.77;;;;;;;17.61;68.26;101241.88;4932924;29;20110;-63
2021/08/03 11:21:26;;;;;;;24.83;18.35;;;;;;;17.66;67.90;101244.53;4933015;29;20036;-62
2021/08/03 11:24:02;;;;;;;25.15;19.90;;;;;;;17.69;67.76;101238.41;4932949;29;20043;-63
2021/08/03 11:26:50;;;;;;;21.90;17.10;;;;;;;17.71;66.54;101240.88;5013247;28;20048;-62
2021/08/03 11:29:24;;;;;;;21.15;16.45;;;;;;;17.71;66.04;101227.91;5033666;28;20073;-62
2021/08/03 11:31:55;;;;;;;23.25;16.00;;;;;;;17.74;66.06;101231.97;5031801;28;20047;-63
2021/08/03 11:34:28;;;;;;;22.25;15.82;;;;;;;17.74;66.57;101229.22;5032116;28;20037;-59
2021/08/03 11:37:07;;;;;;;23.48;17.42;;;;;;;17.78;66.83;101225.56;5030628;28;20045;-63